createdAt,value
2019-01-13T00:00:01.224Z,92995.91
2019-01-13T00:02:29.685Z,93001.47
2019-01-13T00:04:57.298Z,92994.25
2019-01-13T00:07:24.867Z,92988.36
2019-01-13T00:09:52.587Z,92998.98
2019-01-13T00:12:20.197Z,92995.58
2019-01-13T00:14:47.801Z,92994.69
2019-01-13T00:17:15.666Z,92990.91
2019-01-13T00:19:43.416Z,92999.00
2019-01-13T00:22:11.179Z,92999.84
2019-01-13T00:24:38.875Z,92993.06
2019-01-13T00:27:06.530Z,92991.36
2019-01-13T00:29:34.043Z,92985.41
2019-01-13T00:32:01.584Z,92988.81
2019-01-13T00:34:29.089Z,92992.97
2019-01-13T00:36:57.670Z,92989.18
2019-01-13T00:39:25.299Z,92986.20
2019-01-13T00:41:52.873Z,92978.98
2019-01-13T00:44:20.361Z,92982.34
2019-01-13T00:46:47.887Z,92979.83
2019-01-13T00:49:15.377Z,92985.31
2019-01-13T00:51:42.877Z,92981.58
2019-01-13T00:54:10.505Z,92984.14
2019-01-13T00:56:38.195Z,92979.97
2019-01-13T00:59:05.777Z,92973.18
2019-01-13T01:01:33.324Z,92975.22
2019-01-13T01:04:00.909Z,92971.78
2019-01-13T01:06:28.394Z,92968.86
2019-01-13T01:08:56.028Z,92970.12
2019-01-13T01:11:23.880Z,92962.09
2019-01-13T01:13:51.575Z,92958.20
2019-01-13T01:16:19.350Z,92955.68
2019-01-13T01:18:47.069Z,92957.86
2019-01-13T01:21:14.750Z,92952.58
2019-01-13T01:23:42.428Z,92945.13
2019-01-13T01:26:10.322Z,92948.19
2019-01-13T01:28:37.927Z,92940.53
2019-01-13T01:31:05.532Z,92938.58
2019-01-13T01:33:33.156Z,92934.80
2019-01-13T01:36:00.783Z,92938.53
2019-01-13T01:38:28.521Z,92929.23
2019-01-13T01:40:56.283Z,92931.75
2019-01-13T01:43:23.981Z,92933.47
2019-01-13T01:45:51.693Z,92929.28
2019-01-13T01:48:19.421Z,92927.66
2019-01-13T01:50:47.170Z,92917.45
2019-01-13T01:53:14.814Z,92911.06
2019-01-13T01:55:42.649Z,92915.30
2019-01-13T01:58:10.461Z,92905.62
2019-01-13T02:00:40.636Z,92906.00
2019-01-13T02:03:08.139Z,92910.98
2019-01-13T02:05:35.832Z,92905.47
2019-01-13T02:08:04.083Z,92904.27
2019-01-13T02:10:31.694Z,92899.66
2019-01-13T02:12:59.807Z,92902.12
2019-01-13T02:15:27.775Z,92900.48
2019-01-13T02:17:55.604Z,92900.89
2019-01-13T02:20:23.334Z,92898.33
2019-01-13T02:22:51.140Z,92896.23
2019-01-13T02:25:21.585Z,92895.03
2019-01-13T02:27:49.226Z,92889.11
2019-01-13T02:30:18.735Z,92888.26
2019-01-13T02:32:46.450Z,92884.84
2019-01-13T02:35:14.776Z,92884.81
2019-01-13T02:37:42.429Z,92876.36
2019-01-13T02:40:12.401Z,92876.77
2019-01-13T02:42:40.063Z,92872.16
2019-01-13T02:45:11.307Z,92869.07
2019-01-13T02:47:39.042Z,92867.47
2019-01-13T02:50:06.899Z,92865.06
2019-01-13T02:52:34.602Z,92866.30
2019-01-13T02:55:02.395Z,92874.91
2019-01-13T02:57:29.984Z,92876.95
2019-01-13T02:59:57.768Z,92877.89
2019-01-13T03:02:25.511Z,92874.11
2019-01-13T03:04:53.191Z,92872.90
2019-01-13T03:07:20.929Z,92872.53
2019-01-13T03:09:50.409Z,92876.73
2019-01-13T03:12:18.134Z,92878.39
2019-01-13T03:14:45.818Z,92877.49
2019-01-13T03:17:13.612Z,92883.67
2019-01-13T03:19:41.555Z,92884.09
2019-01-13T03:22:09.204Z,92888.39
2019-01-13T03:24:36.832Z,92879.67
2019-01-13T03:27:04.759Z,92888.11
2019-01-13T03:29:32.532Z,92883.83
2019-01-13T03:32:00.226Z,92888.81
2019-01-13T03:34:27.919Z,92899.66
2019-01-13T03:36:55.592Z,92901.93
2019-01-13T03:39:23.117Z,92902.47
2019-01-13T03:41:50.608Z,92903.64
2019-01-13T03:44:18.124Z,92900.66
2019-01-13T03:46:45.776Z,92904.02
2019-01-13T03:49:13.406Z,92905.32
2019-01-13T03:51:41.025Z,92912.95
2019-01-13T03:54:08.834Z,92912.14
2019-01-13T03:56:36.434Z,92907.86
2019-01-13T03:59:04.176Z,92909.42
2019-01-13T04:01:31.685Z,92909.03
2019-01-13T04:03:59.276Z,92906.88
2019-01-13T04:06:26.771Z,92908.52
2019-01-13T04:08:54.316Z,92910.17
2019-01-13T04:11:21.918Z,92909.50
2019-01-13T04:13:49.404Z,92910.39
2019-01-13T04:16:16.914Z,92916.28
2019-01-13T04:18:44.365Z,92904.27
2019-01-13T04:21:11.968Z,92904.29
2019-01-13T04:23:39.669Z,92912.74
2019-01-13T04:26:07.361Z,92913.55
2019-01-13T04:28:34.979Z,92913.48
2019-01-13T04:31:03.130Z,92912.89
2019-01-13T04:33:30.647Z,92926.19
2019-01-13T04:35:58.203Z,92919.23
2019-01-13T04:38:25.836Z,92912.42
2019-01-13T04:40:53.304Z,92912.46
2019-01-13T04:43:20.882Z,92902.75
2019-01-13T04:45:48.360Z,92905.25
2019-01-13T04:48:15.910Z,92902.73
2019-01-13T04:50:43.415Z,92904.37
2019-01-13T04:53:11.042Z,92904.29
2019-01-13T04:55:38.693Z,92900.36
2019-01-13T04:58:06.186Z,92895.78
2019-01-13T05:00:33.794Z,92893.70
2019-01-13T05:03:01.399Z,92892.45
2019-01-13T05:05:29.122Z,92893.25
2019-01-13T05:07:56.707Z,92898.00
2019-01-13T05:10:24.401Z,92905.00
2019-01-13T05:12:51.977Z,92894.58
2019-01-13T05:15:19.559Z,92897.59
2019-01-13T05:17:47.159Z,92902.66
2019-01-13T05:20:18.207Z,92902.38
2019-01-13T05:22:45.908Z,92895.95
2019-01-13T05:25:13.525Z,92899.66
2019-01-13T05:27:41.092Z,92900.28
2019-01-13T05:30:15.006Z,92895.30
2019-01-13T05:32:42.722Z,92886.34
2019-01-13T05:35:10.686Z,92888.09
2019-01-13T05:37:39.094Z,92879.12
2019-01-13T05:40:08.301Z,92872.87
2019-01-13T05:42:36.124Z,92872.19
2019-01-13T05:45:04.891Z,92866.33
2019-01-13T05:47:32.487Z,92860.81
2019-01-13T05:50:00.184Z,92849.59
2019-01-13T05:52:28.208Z,92845.38
2019-01-13T05:54:55.915Z,92840.12
2019-01-13T05:57:23.579Z,92839.50
2019-01-13T05:59:51.405Z,92843.49
2019-01-13T06:02:19.168Z,92844.66
2019-01-13T06:04:46.927Z,92849.09
2019-01-13T06:07:16.095Z,92852.06
2019-01-13T06:09:43.768Z,92860.80
2019-01-13T06:12:11.474Z,92864.72
2019-01-13T06:14:39.449Z,92863.20
2019-01-13T06:17:07.138Z,92864.88
2019-01-13T06:19:35.289Z,92862.06
2019-01-13T06:22:02.989Z,92857.70
2019-01-13T06:24:30.787Z,92855.84
2019-01-13T06:26:59.793Z,92857.92
2019-01-13T06:29:27.948Z,92847.74
2019-01-13T06:31:56.659Z,92852.61
2019-01-13T06:34:24.459Z,92856.57
2019-01-13T06:36:52.455Z,92856.22
2019-01-13T06:39:20.358Z,92849.66
2019-01-13T06:41:48.877Z,92837.86
2019-01-13T06:44:17.125Z,92838.56
2019-01-13T06:46:44.846Z,92843.20
2019-01-13T06:49:12.936Z,92845.20
2019-01-13T06:51:41.220Z,92844.83
2019-01-13T06:54:10.068Z,92837.22
2019-01-13T06:56:38.038Z,92827.67
2019-01-13T06:59:05.761Z,92817.94
2019-01-13T07:01:34.223Z,92815.37
2019-01-13T07:04:02.296Z,92820.81
2019-01-13T07:06:30.523Z,92831.94
2019-01-13T07:08:58.682Z,92842.79
2019-01-13T07:11:26.610Z,92834.74
2019-01-13T07:13:54.509Z,92833.70
2019-01-13T07:16:22.376Z,92836.69
2019-01-13T07:18:50.104Z,92827.07
2019-01-13T07:21:17.920Z,92834.89
2019-01-13T07:23:45.893Z,92832.64
2019-01-13T07:26:13.741Z,92835.67
2019-01-13T07:28:41.476Z,92833.82
2019-01-13T07:31:10.208Z,92832.98
2019-01-13T07:33:38.038Z,92828.63
2019-01-13T07:36:05.982Z,92829.23
2019-01-13T07:38:33.761Z,92826.04
2019-01-13T07:41:01.532Z,92830.38
2019-01-13T07:43:29.737Z,92833.17
2019-01-13T07:45:57.673Z,92839.88
2019-01-13T07:48:25.322Z,92851.84
2019-01-13T07:50:53.095Z,92844.57
2019-01-13T07:53:20.876Z,92835.99
2019-01-13T07:55:48.422Z,92839.13
2019-01-13T07:58:16.062Z,92835.25
2019-01-13T08:00:43.695Z,92842.84
2019-01-13T08:03:11.627Z,92842.28
2019-01-13T08:05:39.432Z,92834.60
2019-01-13T08:08:07.289Z,92834.55
2019-01-13T08:10:34.958Z,92833.02
2019-01-13T08:13:02.631Z,92831.37
2019-01-13T08:15:30.199Z,92836.27
2019-01-13T08:17:57.974Z,92837.09
2019-01-13T08:20:28.244Z,92843.63
2019-01-13T08:22:55.984Z,92849.78
2019-01-13T10:34:12.597Z,92691.36
2019-01-13T10:36:40.180Z,92686.73
2019-01-13T10:39:08.311Z,92678.72
2019-01-13T10:41:36.003Z,92684.48
2019-01-13T10:44:03.770Z,92680.58
2019-01-13T10:46:31.599Z,92666.79
2019-01-13T10:48:59.268Z,92655.86
2019-01-13T10:51:27.173Z,92648.19
2019-01-13T10:53:54.760Z,92644.00
2019-01-13T10:56:22.769Z,92644.34
2019-01-13T10:58:50.519Z,92651.55
2019-01-13T11:01:18.236Z,92651.22
2019-01-13T11:03:46.035Z,92651.28
2019-01-13T11:06:13.906Z,92650.39
2019-01-13T11:08:42.109Z,92655.52
2019-01-13T11:11:11.448Z,92653.86
2019-01-13T11:13:39.743Z,92655.14
2019-01-13T11:16:08.262Z,92651.68
2019-01-13T11:18:36.295Z,92638.03
2019-01-13T11:21:04.329Z,92639.91
2019-01-13T11:23:32.156Z,92640.13
2019-01-13T11:26:00.006Z,92637.73
2019-01-13T11:28:27.740Z,92636.82
2019-01-13T11:30:55.733Z,92634.47
2019-01-13T11:33:23.648Z,92624.05
2019-01-13T11:35:51.558Z,92628.92
2019-01-13T11:38:19.502Z,92628.03
2019-01-13T11:40:47.460Z,92626.84
2019-01-13T11:43:15.240Z,92626.16
2019-01-13T11:45:43.034Z,92630.01
2019-01-13T11:48:11.057Z,92632.78
2019-01-13T11:50:38.777Z,92632.62
2019-01-13T11:53:06.495Z,92623.52
2019-01-13T11:55:34.083Z,92622.82
2019-01-13T11:58:01.831Z,92619.89
2019-01-13T12:00:40.832Z,92619.97
2019-01-13T12:03:08.423Z,92616.48
2019-01-13T12:05:36.446Z,92622.99
2019-01-13T12:08:04.923Z,92617.47
2019-01-13T12:10:32.707Z,92619.04
2019-01-13T12:13:00.644Z,92613.30
2019-01-13T12:15:28.351Z,92609.47
2019-01-13T12:17:56.012Z,92606.77
2019-01-13T12:20:24.522Z,92604.19
2019-01-13T12:22:52.308Z,92597.28
2019-01-13T12:25:20.244Z,92601.20
2019-01-13T12:27:48.244Z,92603.95
2019-01-13T12:30:21.695Z,92591.56
2019-01-13T12:32:49.552Z,92597.31
2019-01-13T12:35:17.332Z,92590.27
2019-01-13T12:37:45.614Z,92584.16
2019-01-13T12:40:15.812Z,92579.73
2019-01-13T12:42:43.739Z,92578.69
2019-01-13T12:45:13.132Z,92578.27
2019-01-13T12:47:40.948Z,92583.27
2019-01-13T12:50:11.964Z,92582.60
2019-01-13T12:52:39.791Z,92576.53
2019-01-13T12:55:07.424Z,92575.84
2019-01-13T12:57:35.088Z,92575.27
2019-01-13T13:00:03.171Z,92571.95
2019-01-13T13:02:30.813Z,92563.56
2019-01-13T13:04:58.365Z,92572.06
2019-01-13T13:07:26.132Z,92565.91
2019-01-13T13:09:53.707Z,92574.36
2019-01-13T13:12:21.479Z,92577.56
2019-01-13T13:14:49.184Z,92579.74
2019-01-13T13:17:16.874Z,92575.63
2019-01-13T13:19:44.343Z,92579.31
2019-01-13T13:22:11.924Z,92576.05
2019-01-13T13:24:39.683Z,92578.09
2019-01-13T13:27:07.190Z,92574.95
2019-01-13T13:29:34.817Z,92578.45
2019-01-13T13:32:02.490Z,92571.84
2019-01-13T13:34:30.099Z,92572.70
2019-01-13T13:36:57.931Z,92548.22
2019-01-13T13:39:25.682Z,92544.16
2019-01-13T13:41:53.371Z,92534.14
2019-01-13T13:44:20.946Z,92530.95
2019-01-13T13:46:48.615Z,92524.61
2019-01-13T13:49:16.260Z,92524.13
2019-01-13T13:51:44.857Z,92537.93
2019-01-13T13:54:12.550Z,92549.86
2019-01-13T13:56:40.354Z,92540.57
2019-01-13T13:59:07.893Z,92522.81
2019-01-13T14:01:35.398Z,92525.40
2019-01-13T14:04:03.154Z,92528.22
2019-01-13T14:06:30.751Z,92528.40
2019-01-13T14:08:58.520Z,92536.97
2019-01-13T14:11:26.319Z,92538.34
2019-01-13T14:13:54.015Z,92547.07
2019-01-13T14:16:21.743Z,92547.36
2019-01-13T14:18:49.483Z,92548.45
2019-01-13T14:21:17.299Z,92551.14
2019-01-13T14:23:44.985Z,92554.34
2019-01-13T14:26:12.675Z,92553.06
2019-01-13T14:28:40.527Z,92545.84
2019-01-13T14:31:08.262Z,92537.64
2019-01-13T14:33:36.217Z,92533.19
2019-01-13T14:36:04.134Z,92538.63
2019-01-13T14:38:31.813Z,92535.54
2019-01-13T14:40:59.623Z,92528.50
2019-01-13T14:43:27.447Z,92526.31
2019-01-13T14:45:55.214Z,92520.98
2019-01-13T14:48:23.254Z,92516.69
2019-01-13T14:50:50.855Z,92526.23
2019-01-13T14:53:18.695Z,92523.62
2019-01-13T14:55:46.314Z,92531.91
2019-01-13T14:58:14.941Z,92527.97
2019-01-13T15:00:43.153Z,92525.77
2019-01-13T15:03:10.907Z,92526.16
2019-01-13T15:05:38.520Z,92522.21
2019-01-13T15:08:06.560Z,92522.44
2019-01-13T15:10:34.885Z,92518.66
2019-01-13T15:13:05.507Z,92514.88
2019-01-13T15:15:35.269Z,92515.87
2019-01-13T15:18:08.570Z,92514.66
2019-01-13T15:20:38.236Z,92512.28
2019-01-13T15:23:06.405Z,92508.27
2019-01-13T15:25:34.149Z,92508.72
2019-01-13T15:28:02.274Z,92510.23
2019-01-13T15:30:32.350Z,92512.33
2019-01-13T15:33:00.131Z,92509.87
2019-01-13T15:35:27.997Z,92503.85
2019-01-13T15:37:55.991Z,92507.81
2019-01-13T15:40:23.778Z,92501.66
2019-01-13T15:42:51.803Z,92504.26
2019-01-13T15:45:19.488Z,92507.44
2019-01-13T15:47:47.281Z,92503.79
2019-01-13T15:50:17.557Z,92509.38
2019-01-13T15:52:45.526Z,92508.84
2019-01-13T15:55:13.447Z,92511.48
2019-01-13T15:57:41.066Z,92513.16
2019-01-13T16:00:21.119Z,92514.08
2019-01-13T16:02:49.161Z,92521.18
2019-01-13T16:05:16.767Z,92513.98
2019-01-13T16:07:44.431Z,92508.98
2019-01-13T16:10:14.602Z,92502.23
2019-01-13T16:12:42.324Z,92508.44
2019-01-13T16:15:10.589Z,92500.87
2019-01-13T16:17:38.240Z,92505.11
2019-01-13T16:20:10.674Z,92501.01
2019-01-13T16:22:38.516Z,92497.23
2019-01-13T16:25:06.171Z,92502.38
2019-01-13T16:27:33.777Z,92503.27
2019-01-13T16:30:01.452Z,92499.13
2019-01-13T16:32:29.086Z,92497.40
2019-01-13T16:34:56.742Z,92500.27
2019-01-13T16:37:24.504Z,92497.97
2019-01-13T16:39:52.406Z,92503.02
2019-01-13T16:42:20.453Z,92496.64
2019-01-13T16:44:48.457Z,92498.41
2019-01-13T16:47:16.334Z,92498.78
2019-01-13T16:49:44.122Z,92504.24
2019-01-13T16:52:11.747Z,92494.50
2019-01-13T16:54:39.631Z,92492.41
2019-01-13T16:57:07.460Z,92495.86
2019-01-13T16:59:35.447Z,92495.41
2019-01-13T17:02:03.287Z,92505.52
2019-01-13T17:04:31.318Z,92504.20
2019-01-13T17:06:59.209Z,92503.30
2019-01-13T17:09:26.945Z,92491.33
2019-01-13T17:11:54.728Z,92487.50
2019-01-13T17:14:22.594Z,92490.46
2019-01-13T17:16:50.476Z,92491.33
2019-01-13T17:19:18.259Z,92490.55
2019-01-13T17:21:46.081Z,92494.42
2019-01-13T17:24:14.024Z,92488.59
2019-01-13T17:26:41.713Z,92486.95
2019-01-13T17:29:09.439Z,92488.67
2019-01-13T17:31:37.521Z,92482.72
2019-01-13T17:34:05.236Z,92485.95
2019-01-13T17:36:38.850Z,92488.67
2019-01-13T17:39:08.272Z,92489.16
2019-01-13T17:41:36.138Z,92484.48
2019-01-13T17:44:05.880Z,92485.63
2019-01-13T17:46:33.771Z,92484.84
2019-01-13T17:49:01.572Z,92483.17
2019-01-13T17:51:29.417Z,92487.89
2019-01-13T17:53:57.047Z,92486.22
2019-01-13T17:56:24.881Z,92482.06
2019-01-13T17:58:52.919Z,92479.11
2019-01-13T18:01:37.623Z,92480.80
2019-01-13T18:04:05.403Z,92482.56
2019-01-13T18:06:33.156Z,92492.52
2019-01-13T18:09:01.338Z,92492.44
2019-01-13T18:11:29.169Z,92493.67
2019-01-13T18:13:57.047Z,92485.20
2019-01-13T18:16:25.242Z,92485.16
2019-01-13T18:18:53.125Z,92478.78
2019-01-13T18:21:21.017Z,92478.64
2019-01-13T18:23:48.906Z,92476.30
2019-01-13T18:26:16.651Z,92477.08
2019-01-13T18:28:44.396Z,92475.16
2019-01-13T18:31:12.077Z,92476.42
2019-01-13T18:33:39.708Z,92477.65
2019-01-13T18:36:07.340Z,92471.05
2019-01-13T18:38:34.951Z,92459.84
2019-01-13T18:41:02.468Z,92465.05
2019-01-13T18:43:30.251Z,92469.38
2019-01-13T18:45:57.773Z,92471.27
2019-01-13T18:48:25.273Z,92468.03
2019-01-13T18:50:53.033Z,92474.65
2019-01-13T18:53:21.396Z,92477.94
2019-01-13T18:55:49.314Z,92479.70
2019-01-13T18:58:17.586Z,92484.75
2019-01-13T19:00:45.575Z,92472.89
2019-01-13T19:03:13.239Z,92466.52
2019-01-13T19:05:41.071Z,92466.68
2019-01-13T19:08:08.841Z,92474.31
2019-01-13T19:10:40.841Z,92466.72
2019-01-13T19:13:16.719Z,92471.86
2019-01-13T19:15:46.198Z,92466.23
2019-01-13T19:18:13.827Z,92463.60
2019-01-13T19:20:41.399Z,92461.84
2019-01-13T19:23:12.031Z,92457.08
2019-01-13T19:25:39.615Z,92448.70
2019-01-13T19:28:07.427Z,92462.70
2019-01-13T19:30:35.033Z,92456.88
2019-01-13T19:33:02.825Z,92463.23
2019-01-13T19:35:30.653Z,92455.97
2019-01-13T19:37:58.303Z,92448.28
2019-01-13T19:40:26.110Z,92442.70
2019-01-13T19:42:53.799Z,92442.70
2019-01-13T19:45:21.711Z,92444.71
2019-01-13T19:47:49.614Z,92440.48
2019-01-13T19:50:19.548Z,92436.12
2019-01-13T19:52:47.161Z,92430.84
2019-01-13T19:55:15.366Z,92418.65
2019-01-13T19:57:43.079Z,92421.69
2019-01-13T20:00:28.343Z,92418.23
2019-01-13T20:02:55.931Z,92422.47
2019-01-13T20:05:23.727Z,92413.48
2019-01-13T20:07:51.528Z,92412.05
2019-01-13T20:10:19.232Z,92415.91
2019-01-13T20:12:47.103Z,92413.56
2019-01-13T20:15:15.179Z,92409.66
2019-01-13T20:17:42.838Z,92406.17
2019-01-13T20:20:11.920Z,92411.25
2019-01-13T20:22:39.937Z,92411.75
2019-01-13T20:25:09.332Z,92406.16
2019-01-13T20:27:37.007Z,92401.61
2019-01-13T20:30:08.815Z,92396.73
2019-01-13T20:32:36.672Z,92388.81
2019-01-13T20:35:05.442Z,92380.53
2019-01-13T20:37:33.152Z,92376.97
2019-01-13T20:40:00.857Z,92373.77
2019-01-13T20:42:28.419Z,92354.73
2019-01-13T20:44:56.220Z,92354.61
2019-01-13T20:47:23.902Z,92356.05
2019-01-13T20:49:51.404Z,92359.86
2019-01-13T20:52:18.958Z,92361.81
2019-01-13T20:54:46.515Z,92362.95
2019-01-13T20:57:14.040Z,92359.16
2019-01-13T20:59:41.532Z,92361.20
2019-01-13T21:02:09.150Z,92363.17
2019-01-13T21:04:36.810Z,92373.09
2019-01-13T21:07:04.558Z,92359.03
2019-01-13T21:09:32.099Z,92357.39
2019-01-13T21:11:59.677Z,92360.96
2019-01-13T21:14:27.826Z,92361.89
2019-01-13T21:16:55.660Z,92347.95
2019-01-13T21:19:23.290Z,92342.78
2019-01-13T21:21:51.029Z,92341.08
2019-01-13T21:24:18.607Z,92337.68
2019-01-13T21:26:46.179Z,92332.73
2019-01-13T21:29:13.935Z,92330.95
2019-01-13T21:31:41.569Z,92326.40
2019-01-13T21:34:09.108Z,92318.37
2019-01-13T21:36:36.551Z,92323.00
2019-01-13T21:39:08.184Z,92318.13
2019-01-13T21:41:35.851Z,92309.94
2019-01-13T21:44:03.585Z,92315.01
2019-01-13T21:46:31.249Z,92307.50
2019-01-13T21:48:59.192Z,92305.00
2019-01-13T21:51:26.891Z,92301.45
2019-01-13T21:53:54.517Z,92293.50
2019-01-13T21:56:22.147Z,92294.33
2019-01-13T21:58:49.688Z,92283.52
2019-01-13T22:01:17.249Z,92277.27
2019-01-13T22:03:44.863Z,92286.09
2019-01-13T22:06:12.464Z,92283.41
2019-01-13T22:08:40.062Z,92272.25
2019-01-13T22:11:07.927Z,92278.44
2019-01-13T22:13:35.551Z,92279.30
2019-01-13T22:16:03.082Z,92272.72
2019-01-13T22:18:30.605Z,92271.36
2019-01-13T22:20:58.276Z,92269.88
2019-01-13T22:23:25.756Z,92261.94
2019-01-13T22:25:53.388Z,92256.58
2019-01-13T22:28:20.883Z,92244.05
2019-01-13T22:30:48.363Z,92237.02
2019-01-13T22:33:15.890Z,92232.64
2019-01-13T22:35:48.072Z,92229.80
2019-01-13T22:38:12.870Z,92234.02
2019-01-13T22:40:40.411Z,92240.15
2019-01-13T22:43:07.918Z,92233.91
2019-01-13T22:45:35.376Z,92234.16
2019-01-13T22:48:03.036Z,92236.80
2019-01-13T22:50:30.607Z,92232.77
2019-01-13T22:52:58.318Z,92220.41
2019-01-13T22:55:25.809Z,92218.28
2019-01-13T22:57:53.279Z,92209.74
2019-01-13T23:01:22.798Z,92196.46
2019-01-13T23:03:51.175Z,92202.72
2019-01-13T23:06:18.797Z,92198.23
2019-01-13T23:08:46.263Z,92195.40
2019-01-13T23:11:13.759Z,92200.13
2019-01-13T23:13:41.370Z,92195.69
2019-01-13T23:16:08.854Z,92192.95
2019-01-13T23:18:36.343Z,92191.05
2019-01-13T23:21:04.051Z,92190.31
2019-01-13T23:23:31.643Z,92179.22
2019-01-13T23:25:59.160Z,92174.63
2019-01-13T23:28:26.658Z,92175.63
2019-01-13T23:30:54.245Z,92174.72
2019-01-13T23:33:21.961Z,92170.97
2019-01-13T23:35:49.486Z,92172.86
2019-01-13T23:38:17.028Z,92165.42
2019-01-13T23:40:44.711Z,92167.34
2019-01-13T23:43:12.327Z,92181.27
2019-01-13T23:45:39.996Z,92180.95
2019-01-13T23:48:07.680Z,92175.03
2019-01-13T23:50:35.296Z,92166.84
2019-01-13T23:53:03.050Z,92168.03
2019-01-13T23:55:30.749Z,92167.03
2019-01-13T23:57:58.362Z,92166.84
